Time;durP1;ratioP1;P1;durP2;ratioP2;P2;SDS_P1;SDS_P2;PMS_P1;PMS_P2;Temp;Humidity;BMP_temperature;BMP_pressure;BME280_temperature;BME280_humidity;BME280_pressure;Samples;Min_cycle;Max_cycle;Signal;HPM_P1;HPM_P2
2024/02/07 00:01:42;;;;;;;0.30;0.30;;;;;;;;;;5005462;28;20531;-61
2024/02/07 00:04:09;;;;;;;0.30;0.30;;;;;;;;;;5005302;28;20049;-60
2024/02/07 00:06:36;;;;;;;0.30;0.30;;;;;;;;;;5005747;28;20104;-61
2024/02/07 00:09:02;;;;;;;0.40;0.40;;;;;;;;;;5005886;28;20514;-61
2024/02/07 00:11:29;;;;;;;0.30;0.30;;;;;;;;;;5005035;28;20528;-61
2024/02/07 00:13:55;;;;;;;0.35;0.35;;;;;;;;;;5005590;28;20139;-61
2024/02/07 00:16:22;;;;;;;0.40;0.40;;;;;;;;;;5005317;28;20053;-62
2024/02/07 00:18:48;;;;;;;0.30;0.30;;;;;;;;;;5005574;28;20049;-60
2024/02/07 00:21:15;;;;;;;0.30;0.30;;;;;;;;;;5020169;28;20137;-62
2024/02/07 00:23:42;;;;;;;0.40;0.40;;;;;;;;;;5005526;28;20076;-60
2024/02/07 00:26:08;;;;;;;0.30;0.30;;;;;;;;;;5005264;28;20050;-61
2024/02/07 00:28:35;;;;;;;0.30;0.30;;;;;;;;;;5005459;28;20057;-60
2024/02/07 00:31:04;;;;;;;0.30;0.30;;;;;;;;;;5005177;28;20160;-61
2024/02/07 00:33:30;;;;;;;0.30;0.30;;;;;;;;;;5004653;28;20061;-62
2024/02/07 00:35:57;;;;;;;0.30;0.30;;;;;;;;;;5019841;28;20108;-60
2024/02/07 00:38:24;;;;;;;0.35;0.35;;;;;;;;;;5003508;28;20136;-61
2024/02/07 00:40:50;;;;;;;0.30;0.30;;;;;;;;;;5003488;28;20049;-60
2024/02/07 00:43:17;;;;;;;0.30;0.30;;;;;;;;;;5004943;28;20058;-61
2024/02/07 00:45:44;;;;;;;0.30;0.30;;;;;;;;;;5005447;28;20050;-60
2024/02/07 00:48:10;;;;;;;0.30;0.30;;;;;;;;;;5004924;28;20109;-61
2024/02/07 00:50:37;;;;;;;0.30;0.30;;;;;;;;;;5004731;28;20335;-62
2024/02/07 00:53:04;;;;;;;0.30;0.30;;;;;;;;;;5004762;28;20050;-60
2024/02/07 00:55:30;;;;;;;0.30;0.30;;;;;;;;;;5004245;28;20077;-61
2024/02/07 00:57:57;;;;;;;0.40;0.40;;;;;;;;;;5004830;28;20069;-60
2024/02/07 01:00:25;;;;;;;0.30;0.30;;;;;;;;;;5004403;28;20052;-62
2024/02/07 01:02:52;;;;;;;0.40;0.40;;;;;;;;;;5004853;28;20054;-61
2024/02/07 01:05:19;;;;;;;0.30;0.30;;;;;;;;;;5018939;28;20069;-60
2024/02/07 01:07:45;;;;;;;0.30;0.30;;;;;;;;;;5004964;28;20083;-60
2024/02/07 01:10:12;;;;;;;0.32;0.32;;;;;;;;;;5004489;28;20050;-61
2024/02/07 01:12:38;;;;;;;0.30;0.30;;;;;;;;;;5004407;28;20060;-61
2024/02/07 01:15:06;;;;;;;0.30;0.30;;;;;;;;;;5004316;28;20056;-61
2024/02/07 01:17:33;;;;;;;0.32;0.32;;;;;;;;;;5002799;28;20507;-61
2024/02/07 01:20:00;;;;;;;0.38;0.38;;;;;;;;;;5004402;28;20065;-61
2024/02/07 01:22:26;;;;;;;0.30;0.30;;;;;;;;;;5019237;28;20576;-60
2024/02/07 01:24:55;;;;;;;0.30;0.30;;;;;;;;;;5004730;28;20060;-61
2024/02/07 01:27:21;;;;;;;0.30;0.30;;;;;;;;;;5004649;28;20054;-60
2024/02/07 01:29:49;;;;;;;0.30;0.30;;;;;;;;;;5003681;28;20097;-60
2024/02/07 01:32:16;;;;;;;0.30;0.30;;;;;;;;;;5003471;28;20063;-62
2024/02/07 01:34:45;;;;;;;0.30;0.30;;;;;;;;;;5003331;28;20069;-62
2024/02/07 01:37:11;;;;;;;0.30;0.30;;;;;;;;;;5004073;28;20064;-60
2024/02/07 01:39:38;;;;;;;0.30;0.30;;;;;;;;;;5004083;28;20053;-62
2024/02/07 01:42:05;;;;;;;0.30;0.30;;;;;;;;;;5003963;28;20061;-60
2024/02/07 01:44:32;;;;;;;0.30;0.30;;;;;;;;;;5003965;28;20133;-61
2024/02/07 01:47:11;;;;;;;0.30;0.30;;;;;;;;;;5003734;28;20053;-61
2024/02/07 01:49:39;;;;;;;0.30;0.30;;;;;;;;;;5004151;28;20069;-60
2024/02/07 01:52:07;;;;;;;0.30;0.30;;;;;;;;;;5003671;28;20053;-61
2024/02/07 01:54:34;;;;;;;0.30;0.30;;;;;;;;;;5002693;28;20489;-61
2024/02/07 01:57:01;;;;;;;0.30;0.30;;;;;;;;;;5017291;28;20056;-60
2024/02/07 01:59:27;;;;;;;0.30;0.30;;;;;;;;;;5004146;28;20065;-60
2024/02/07 02:01:54;;;;;;;0.30;0.30;;;;;;;;;;5004320;28;20058;-60
2024/02/07 02:04:21;;;;;;;0.30;0.30;;;;;;;;;;5004093;28;20057;-60
2024/02/07 02:06:47;;;;;;;0.40;0.40;;;;;;;;;;5004221;28;20054;-60
2024/02/07 02:09:15;;;;;;;0.30;0.30;;;;;;;;;;5004507;28;20054;-59
2024/02/07 02:11:43;;;;;;;0.30;0.30;;;;;;;;;;5004213;28;20447;-60
2024/02/07 02:14:10;;;;;;;0.30;0.30;;;;;;;;;;5003938;28;20058;-60
2024/02/07 02:16:37;;;;;;;0.30;0.30;;;;;;;;;;5005633;28;20629;-60
2024/02/07 02:19:03;;;;;;;0.30;0.30;;;;;;;;;;5007659;28;20523;-60
2024/02/07 02:21:34;;;;;;;0.30;0.30;;;;;;;;;;5007400;28;20100;-61
2024/02/07 02:24:05;;;;;;;0.30;0.30;;;;;;;;;;5007709;28;20046;-61
2024/02/07 02:26:38;;;;;;;0.32;0.32;;;;;;;;;;5007428;28;20049;-60
2024/02/07 02:29:14;;;;;;;0.25;0.25;;;;;;;;;;5007324;28;20081;-60
2024/02/07 02:31:42;;;;;;;0.30;0.30;;;;;;;;;;5007366;28;20050;-60
2024/02/07 02:34:10;;;;;;;0.30;0.30;;;;;;;;;;5006991;28;20162;-60
2024/02/07 02:36:37;;;;;;;0.30;0.30;;;;;;;;;;5007149;28;20156;-62
2024/02/07 02:39:05;;;;;;;0.30;0.30;;;;;;;;;;5006962;28;20057;-60
2024/02/07 02:41:32;;;;;;;0.30;0.30;;;;;;;;;;5021987;28;20547;-61
2024/02/07 02:43:59;;;;;;;0.30;0.30;;;;;;;;;;5007216;28;20141;-60
2024/02/07 02:46:25;;;;;;;0.30;0.30;;;;;;;;;;5005361;28;20054;-61
2024/02/07 02:48:52;;;;;;;0.30;0.30;;;;;;;;;;5007111;28;20056;-60
2024/02/07 02:51:20;;;;;;;0.30;0.30;;;;;;;;;;5007161;28;20096;-62
2024/02/07 02:53:46;;;;;;;0.30;0.30;;;;;;;;;;5007014;28;20061;-60
2024/02/07 02:56:13;;;;;;;0.30;0.30;;;;;;;;;;5006602;28;20552;-61
2024/02/07 02:58:39;;;;;;;0.30;0.30;;;;;;;;;;5006865;28;20056;-60
2024/02/07 03:01:10;;;;;;;0.30;0.30;;;;;;;;;;5005671;28;20045;-60
2024/02/07 03:03:38;;;;;;;0.30;0.30;;;;;;;;;;5007127;28;20140;-60
2024/02/07 03:06:18;;;;;;;0.30;0.30;;;;;;;;;;5006668;28;20050;-59
2024/02/07 03:08:54;;;;;;;0.30;0.30;;;;;;;;;;5012193;28;20053;-60
2024/02/07 03:11:21;;;;;;;0.20;0.20;;;;;;;;;;5006842;28;20060;-60
2024/02/07 03:13:48;;;;;;;0.30;0.30;;;;;;;;;;5006563;28;20049;-60
2024/02/07 03:16:15;;;;;;;0.30;0.30;;;;;;;;;;5006232;28;20903;-60
2024/02/07 03:18:42;;;;;;;0.30;0.30;;;;;;;;;;5006701;28;20057;-60
2024/02/07 03:21:09;;;;;;;0.30;0.30;;;;;;;;;;5006164;28;20526;-60
2024/02/07 03:23:36;;;;;;;0.30;0.30;;;;;;;;;;5005024;28;20417;-60
2024/02/07 03:26:04;;;;;;;0.30;0.30;;;;;;;;;;5006453;28;20058;-62
2024/02/07 03:28:31;;;;;;;0.30;0.30;;;;;;;;;;5005565;28;20581;-60
2024/02/07 03:30:58;;;;;;;0.30;0.30;;;;;;;;;;5005025;28;20054;-61
2024/02/07 03:33:25;;;;;;;0.30;0.30;;;;;;;;;;5005703;28;20081;-60
2024/02/07 03:35:52;;;;;;;0.30;0.30;;;;;;;;;;5006520;28;20696;-61
2024/02/07 03:38:19;;;;;;;0.30;0.30;;;;;;;;;;5005832;28;20084;-60
2024/02/07 03:40:46;;;;;;;0.30;0.30;;;;;;;;;;5005463;28;20053;-60
2024/02/07 03:43:12;;;;;;;0.30;0.30;;;;;;;;;;5006288;28;20132;-60
2024/02/07 03:45:39;;;;;;;0.20;0.20;;;;;;;;;;5021022;28;20057;-62
2024/02/07 03:48:12;;;;;;;0.30;0.30;;;;;;;;;;5004788;28;20049;-61
2024/02/07 03:50:39;;;;;;;0.30;0.30;;;;;;;;;;5005766;28;20111;-61
2024/02/07 03:53:07;;;;;;;0.30;0.30;;;;;;;;;;5005873;28;20057;-60
2024/02/07 03:55:37;;;;;;;0.30;0.30;;;;;;;;;;5005813;28;20060;-59
2024/02/07 03:58:07;;;;;;;0.30;0.30;;;;;;;;;;5005921;28;20518;-61
2024/02/07 04:00:34;;;;;;;0.30;0.30;;;;;;;;;;5005551;28;20054;-60
2024/02/07 04:03:01;;;;;;;0.30;0.30;;;;;;;;;;5005830;28;20108;-60
2024/02/07 04:05:27;;;;;;;0.30;0.30;;;;;;;;;;5004130;28;20464;-61
2024/02/07 04:07:54;;;;;;;0.30;0.30;;;;;;;;;;5020570;28;20120;-62
2024/02/07 04:10:23;;;;;;;0.30;0.30;;;;;;;;;;5005661;28;20164;-60
2024/02/07 05:15:54;;;;;;;0.30;0.30;;;;;;;;;;5004115;28;20259;-62
2024/02/07 05:18:21;;;;;;;0.30;0.30;;;;;;;;;;5004429;28;20061;-62
2024/02/07 05:20:48;;;;;;;0.30;0.30;;;;;;;;;;5004084;28;20064;-62
2024/02/07 05:23:16;;;;;;;0.30;0.30;;;;;;;;;;5004514;28;20065;-65
2024/02/07 05:25:44;;;;;;;0.30;0.30;;;;;;;;;;5019519;28;20579;-62
2024/02/07 05:28:12;;;;;;;0.30;0.30;;;;;;;;;;5018965;28;20132;-61
2024/02/07 05:30:42;;;;;;;0.30;0.30;;;;;;;;;;5004123;28;20054;-60
2024/02/07 05:33:08;;;;;;;0.30;0.30;;;;;;;;;;5002543;28;20120;-62
2024/02/07 05:35:36;;;;;;;0.30;0.30;;;;;;;;;;5004094;28;20141;-61
2024/02/07 05:38:02;;;;;;;0.30;0.30;;;;;;;;;;5004037;28;20108;-61
2024/02/07 05:40:29;;;;;;;0.30;0.30;;;;;;;;;;5002717;28;20057;-62
2024/02/07 05:42:56;;;;;;;0.30;0.30;;;;;;;;;;5004316;28;20111;-61
2024/02/07 05:45:23;;;;;;;0.30;0.30;;;;;;;;;;5002515;28;20081;-63
2024/02/07 05:47:49;;;;;;;0.30;0.30;;;;;;;;;;5004282;28;20050;-60
2024/02/07 05:50:16;;;;;;;0.30;0.30;;;;;;;;;;5005197;28;20053;-61
2024/02/07 05:52:43;;;;;;;0.20;0.20;;;;;;;;;;5007984;28;20054;-59
2024/02/07 05:55:09;;;;;;;0.30;0.30;;;;;;;;;;5007365;28;20095;-60
2024/02/07 05:57:36;;;;;;;0.30;0.30;;;;;;;;;;5008377;28;20128;-61
2024/02/07 06:00:08;;;;;;;0.30;0.30;;;;;;;;;;5007961;28;20054;-59
2024/02/07 06:02:36;;;;;;;0.25;0.25;;;;;;;;;;5008170;28;20057;-61
2024/02/07 06:05:03;;;;;;;0.30;0.30;;;;;;;;;;5022735;28;20241;-62
2024/02/07 06:07:30;;;;;;;0.30;0.30;;;;;;;;;;5007833;28;20508;-60
2024/02/07 06:09:58;;;;;;;0.30;0.30;;;;;;;;;;5007701;28;20089;-62
2024/02/07 06:12:24;;;;;;;0.30;0.30;;;;;;;;;;5007773;28;20128;-63
2024/02/07 06:14:51;;;;;;;0.30;0.30;;;;;;;;;;5007869;28;20456;-59
2024/02/07 06:17:18;;;;;;;0.30;0.30;;;;;;;;;;4998390;28;20056;-60
2024/02/07 06:19:45;;;;;;;0.30;0.30;;;;;;;;;;5021655;28;20061;-61
2024/02/07 06:22:13;;;;;;;0.30;0.30;;;;;;;;;;5006359;28;20084;-61
2024/02/07 06:24:39;;;;;;;0.30;0.30;;;;;;;;;;5008054;28;20061;-62
2024/02/07 06:27:06;;;;;;;0.30;0.30;;;;;;;;;;5022169;28;20512;-61
2024/02/07 06:29:32;;;;;;;0.30;0.30;;;;;;;;;;5007638;28;20046;-59
2024/02/07 06:31:59;;;;;;;0.30;0.30;;;;;;;;;;5007252;28;20054;-59
2024/02/07 06:34:31;;;;;;;0.30;0.30;;;;;;;;;;5006839;28;20057;-59
2024/02/07 06:36:59;;;;;;;0.30;0.30;;;;;;;;;;5007581;28;20068;-61
2024/02/07 06:39:26;;;;;;;0.30;0.30;;;;;;;;;;5007185;28;20511;-62
2024/02/07 06:41:53;;;;;;;0.30;0.30;;;;;;;;;;5007234;28;20072;-59
2024/02/07 06:44:20;;;;;;;0.30;0.30;;;;;;;;;;5007423;28;20053;-60
2024/02/07 06:46:47;;;;;;;0.22;0.22;;;;;;;;;;5007021;28;20057;-60
2024/02/07 06:49:14;;;;;;;0.30;0.30;;;;;;;;;;5007204;28;20058;-59
2024/02/07 06:51:41;;;;;;;0.30;0.30;;;;;;;;;;5007183;28;20073;-60
2024/02/07 06:54:09;;;;;;;0.40;0.40;;;;;;;;;;5007102;28;20088;-61
2024/02/07 06:56:36;;;;;;;0.35;0.35;;;;;;;;;;5007068;28;20053;-61
2024/02/07 06:59:03;;;;;;;0.30;0.30;;;;;;;;;;5004333;28;20503;-63
2024/02/07 07:01:30;;;;;;;0.38;0.38;;;;;;;;;;5005992;28;20161;-68
2024/02/07 07:03:57;;;;;;;0.40;0.40;;;;;;;;;;5006546;28;20089;-62
2024/02/07 07:06:26;;;;;;;0.30;0.30;;;;;;;;;;5005867;28;20042;-65
2024/02/07 07:08:53;;;;;;;0.30;0.30;;;;;;;;;;5006435;28;20053;-63
2024/02/07 07:11:19;;;;;;;0.40;0.40;;;;;;;;;;5004473;28;20074;-63
2024/02/07 07:13:46;;;;;;;0.40;0.40;;;;;;;;;;5004756;28;20057;-63
2024/02/07 07:16:13;;;;;;;0.40;0.40;;;;;;;;;;5021109;28;20050;-61
2024/02/07 07:18:40;;;;;;;0.40;0.40;;;;;;;;;;5005878;28;20085;-60
2024/02/07 07:21:06;;;;;;;0.30;0.30;;;;;;;;;;5005306;28;20505;-61
2024/02/07 07:23:33;;;;;;;0.40;0.40;;;;;;;;;;5005132;28;20442;-63
2024/02/07 07:26:00;;;;;;;0.40;0.40;;;;;;;;;;5004986;28;20165;-62
2024/02/07 07:28:26;;;;;;;0.40;0.40;;;;;;;;;;5005280;28;20049;-65
2024/02/07 07:30:55;;;;;;;0.40;0.40;;;;;;;;;;5020033;28;20107;-64
2024/02/07 07:33:23;;;;;;;0.47;0.47;;;;;;;;;;5004961;28;20061;-61
2024/02/07 07:35:50;;;;;;;0.50;0.50;;;;;;;;;;5005697;28;20525;-61
2024/02/07 07:38:16;;;;;;;0.50;0.50;;;;;;;;;;5005852;28;20056;-62
2024/02/07 07:40:43;;;;;;;0.50;0.50;;;;;;;;;;5005850;28;20046;-61
2024/02/07 07:43:10;;;;;;;0.50;0.50;;;;;;;;;;5005698;28;20050;-64
2024/02/07 07:45:37;;;;;;;0.50;0.50;;;;;;;;;;5005401;28;20563;-62
2024/02/07 07:48:04;;;;;;;0.50;0.50;;;;;;;;;;5020643;28;20057;-61
2024/02/07 07:50:31;;;;;;;0.50;0.50;;;;;;;;;;5005483;28;20049;-63
2024/02/07 07:52:57;;;;;;;0.50;0.50;;;;;;;;;;5004104;28;20053;-64
2024/02/07 07:55:24;;;;;;;0.60;0.60;;;;;;;;;;5005475;28;20084;-68
2024/02/07 07:57:51;;;;;;;0.50;0.50;;;;;;;;;;5005693;28;20085;-66
2024/02/07 08:00:17;;;;;;;0.50;0.50;;;;;;;;;;5005615;28;20054;-68
2024/02/07 08:02:44;;;;;;;0.50;0.50;;;;;;;;;;5005637;28;20054;-62
2024/02/07 08:05:10;;;;;;;0.50;0.50;;;;;;;;;;5004752;28;20085;-62
2024/02/07 08:07:38;;;;;;;0.60;0.60;;;;;;;;;;5005444;28;20058;-66
2024/02/07 08:10:05;;;;;;;0.60;0.60;;;;;;;;;;5005072;28;20100;-65
2024/02/07 08:12:31;;;;;;;0.60;0.60;;;;;;;;;;5004841;28;20575;-62
2024/02/07 08:14:58;;;;;;;0.60;0.60;;;;;;;;;;5019127;28;20050;-64
2024/02/07 08:17:24;;;;;;;0.52;0.52;;;;;;;;;;5004872;28;20073;-65
2024/02/07 08:19:51;;;;;;;0.70;0.70;;;;;;;;;;5005042;28;20058;-65
2024/02/07 08:22:18;;;;;;;0.60;0.60;;;;;;;;;;5020036;28;20049;-67
2024/02/07 08:24:45;;;;;;;0.57;0.57;;;;;;;;;;5004997;28;20143;-62
2024/02/07 08:27:11;;;;;;;0.50;0.50;;;;;;;;;;5004838;28;20046;-61
2024/02/07 08:29:38;;;;;;;0.50;0.50;;;;;;;;;;5004614;28;20552;-60
2024/02/07 08:32:04;;;;;;;0.65;0.65;;;;;;;;;;5019424;28;20136;-61
2024/02/07 08:34:33;;;;;;;0.60;0.60;;;;;;;;;;5019415;28;20068;-65
2024/02/07 08:37:00;;;;;;;0.60;0.60;;;;;;;;;;5005000;28;20057;-64
2024/02/07 08:39:27;;;;;;;0.70;0.70;;;;;;;;;;5004661;28;20111;-64
2024/02/07 08:41:54;;;;;;;0.60;0.60;;;;;;;;;;5003272;28;20077;-65
2024/02/07 08:44:20;;;;;;;0.60;0.60;;;;;;;;;;5004786;28;20147;-63
2024/02/07 08:46:47;;;;;;;0.70;0.70;;;;;;;;;;5004425;28;20072;-63
2024/02/07 08:49:18;;;;;;;0.70;0.70;;;;;;;;;;5019260;28;20057;-62
2024/02/07 08:51:45;;;;;;;0.60;0.60;;;;;;;;;;5003731;28;20054;-71
2024/02/07 08:54:12;;;;;;;0.60;0.60;;;;;;;;;;5004624;28;20530;-63
2024/02/07 08:56:39;;;;;;;0.70;0.70;;;;;;;;;;5004396;28;20050;-63
2024/02/07 08:59:05;;;;;;;0.60;0.60;;;;;;;;;;5003568;28;20076;-61
2024/02/07 09:01:32;;;;;;;0.70;0.70;;;;;;;;;;5003726;28;20068;-63
2024/02/07 09:03:59;;;;;;;0.70;0.70;;;;;;;;;;5019570;28;20058;-64
2024/02/07 09:06:25;;;;;;;0.70;0.70;;;;;;;;;;5019025;28;20050;-64
2024/02/07 09:08:52;;;;;;;0.60;0.60;;;;;;;;;;5004583;28;20054;-64
2024/02/07 09:11:19;;;;;;;0.60;0.60;;;;;;;;;;5004249;28;20057;-61
2024/02/07 09:13:45;;;;;;;0.68;0.68;;;;;;;;;;5003748;28;20061;-61
2024/02/07 09:16:12;;;;;;;0.60;0.60;;;;;;;;;;5003649;28;20137;-62
2024/02/07 09:18:39;;;;;;;0.65;0.65;;;;;;;;;;5003982;28;20065;-63
2024/02/07 09:21:05;;;;;;;0.80;0.80;;;;;;;;;;5003737;28;20054;-61
2024/02/07 09:23:32;;;;;;;0.70;0.70;;;;;;;;;;5002613;28;20432;-62
2024/02/07 09:25:59;;;;;;;0.80;0.80;;;;;;;;;;5002952;28;20584;-62
2024/02/07 09:28:25;;;;;;;0.80;0.80;;;;;;;;;;5003453;28;20056;-61
2024/02/07 09:30:53;;;;;;;0.70;0.70;;;;;;;;;;5003349;28;20564;-63
2024/02/07 09:33:20;;;;;;;0.80;0.80;;;;;;;;;;5001904;28;20061;-62
2024/02/07 09:35:48;;;;;;;0.73;0.73;;;;;;;;;;5002911;28;20519;-60
2024/02/07 09:38:14;;;;;;;0.80;0.80;;;;;;;;;;5003857;28;20046;-62
2024/02/07 09:40:45;;;;;;;0.70;0.70;;;;;;;;;;5017912;28;20531;-61
2024/02/07 09:43:12;;;;;;;0.80;0.80;;;;;;;;;;5002315;28;20096;-61
2024/02/07 09:45:41;;;;;;;0.80;0.80;;;;;;;;;;5002124;28;20259;-61
2024/02/07 09:48:20;;;;;;;0.80;0.80;;;;;;;;;;5003797;28;20105;-62
2024/02/07 09:50:47;;;;;;;0.90;0.90;;;;;;;;;;5002092;28;20088;-62
2024/02/07 09:53:14;;;;;;;0.77;0.77;;;;;;;;;;5003665;28;20050;-62
2024/02/07 09:55:42;;;;;;;0.80;0.80;;;;;;;;;;5002830;28;20049;-62
2024/02/07 09:58:09;;;;;;;0.82;0.82;;;;;;;;;;5003654;28;20057;-64
2024/02/07 10:00:36;;;;;;;0.80;0.80;;;;;;;;;;5002691;28;20057;-62
2024/02/07 10:03:06;;;;;;;0.90;0.90;;;;;;;;;;5003327;28;20137;-64
2024/02/07 10:05:36;;;;;;;0.90;0.90;;;;;;;;;;5002791;28;20057;-61
2024/02/07 10:08:03;;;;;;;0.90;0.90;;;;;;;;;;5003349;28;20064;-62
2024/02/07 10:10:31;;;;;;;0.82;0.82;;;;;;;;;;5017809;28;20145;-60
2024/02/07 10:12:58;;;;;;;0.80;0.80;;;;;;;;;;5003316;28;20054;-59
2024/02/07 10:15:25;;;;;;;0.73;0.73;;;;;;;;;;5003382;28;20058;-60
2024/02/07 10:17:52;;;;;;;0.90;0.90;;;;;;;;;;5003718;28;20070;-61
2024/02/07 10:20:18;;;;;;;0.90;0.90;;;;;;;;;;5002721;28;20511;-61
2024/02/07 10:22:45;;;;;;;0.80;0.80;;;;;;;;;;5003199;28;20046;-60
2024/02/07 10:25:13;;;;;;;0.90;0.90;;;;;;;;;;5002663;28;20053;-60
2024/02/07 10:27:41;;;;;;;1.00;1.00;;;;;;;;;;5003025;28;20132;-62
2024/02/07 10:30:08;;;;;;;0.80;0.80;;;;;;;;;;5002891;28;20053;-63
2024/02/07 10:32:35;;;;;;;1.00;1.00;;;;;;;;;;5002991;28;20058;-61
2024/02/07 10:35:04;;;;;;;0.90;0.90;;;;;;;;;;5002773;28;20046;-60
2024/02/07 10:37:40;;;;;;;0.90;0.90;;;;;;;;;;5004610;28;20081;-63
2024/02/07 10:40:08;;;;;;;0.90;0.90;;;;;;;;;;5006314;28;20057;-61
2024/02/07 10:42:35;;;;;;;0.90;0.90;;;;;;;;;;5006574;28;20050;-63
2024/02/07 10:45:03;;;;;;;0.90;0.90;;;;;;;;;;5006450;28;20053;-63
2024/02/07 10:47:30;;;;;;;0.90;0.90;;;;;;;;;;5006477;28;20137;-63
2024/02/07 10:49:57;;;;;;;0.95;0.95;;;;;;;;;;5006744;28;20058;-63
2024/02/07 10:52:24;;;;;;;0.93;0.93;;;;;;;;;;4989763;28;20428;-63
2024/02/07 10:54:51;;;;;;;1.00;1.00;;;;;;;;;;4988728;28;20054;-62
2024/02/07 10:57:20;;;;;;;1.00;1.00;;;;;;;;;;4996044;28;20053;-61
2024/02/07 10:59:47;;;;;;;0.90;0.90;;;;;;;;;;5005959;28;20060;-63
2024/02/07 11:02:17;;;;;;;1.00;1.00;;;;;;;;;;5004498;28;20125;-64
2024/02/07 11:04:45;;;;;;;0.93;0.93;;;;;;;;;;5005181;28;20049;-62
2024/02/07 11:07:14;;;;;;;1.00;1.00;;;;;;;;;;5007234;28;20543;-65
2024/02/07 11:09:43;;;;;;;1.08;1.08;;;;;;;;;;5006494;28;20053;-61
2024/02/07 11:12:12;;;;;;;1.00;1.00;;;;;;;;;;5004960;28;20564;-68
2024/02/07 11:14:40;;;;;;;1.00;1.00;;;;;;;;;;5004304;28;20497;-68
2024/02/07 11:17:07;;;;;;;0.80;0.80;;;;;;;;;;5005426;28;20054;-66
2024/02/07 11:19:34;;;;;;;0.95;0.95;;;;;;;;;;5004886;28;20054;-69
2024/02/07 11:22:03;;;;;;;0.90;0.90;;;;;;;;;;5034185;28;20093;-69
2024/02/07 11:24:30;;;;;;;1.00;1.00;;;;;;;;;;5015641;28;20045;-66
2024/02/07 11:26:56;;;;;;;0.88;0.88;;;;;;;;;;5007512;28;20053;-69
2024/02/07 11:29:23;;;;;;;0.90;0.90;;;;;;;;;;5005478;28;20129;-62
2024/02/07 11:31:52;;;;;;;1.00;1.00;;;;;;;;;;5005051;28;20143;-68
2024/02/07 11:34:19;;;;;;;1.00;1.00;;;;;;;;;;5004779;28;20068;-65
2024/02/07 11:36:54;;;;;;;0.90;0.90;;;;;;;;;;5009163;28;20157;-64
2024/02/07 11:39:21;;;;;;;1.00;1.00;;;;;;;;;;5012948;28;20171;-63
2024/02/07 11:41:48;;;;;;;1.00;1.00;;;;;;;;;;5005588;28;20061;-61
2024/02/07 11:44:15;;;;;;;0.90;0.90;;;;;;;;;;5005316;28;20144;-62
2024/02/07 11:46:49;;;;;;;0.90;0.90;;;;;;;;;;5020188;28;20200;-62
2024/02/07 11:49:17;;;;;;;0.80;0.80;;;;;;;;;;5004752;28;20681;-61
2024/02/07 11:51:44;;;;;;;0.85;0.85;;;;;;;;;;5009731;28;20229;-64
2024/02/07 11:54:10;;;;;;;0.90;0.90;;;;;;;;;;5012438;28;20057;-62
2024/02/07 11:56:37;;;;;;;0.88;0.88;;;;;;;;;;5024379;28;20515;-63
2024/02/07 11:59:04;;;;;;;0.82;0.82;;;;;;;;;;5004576;28;20057;-64
2024/02/07 12:01:31;;;;;;;1.00;1.00;;;;;;;;;;5005114;28;20054;-64
2024/02/07 12:03:58;;;;;;;0.95;0.95;;;;;;;;;;5002971;28;20050;-63
2024/02/07 12:06:24;;;;;;;0.90;0.90;;;;;;;;;;5008956;28;20045;-65
2024/02/07 12:08:52;;;;;;;1.02;1.02;;;;;;;;;;5004651;28;20583;-63
2024/02/07 12:11:18;;;;;;;0.90;0.90;;;;;;;;;;5005203;28;20410;-63
2024/02/07 12:13:45;;;;;;;0.90;0.90;;;;;;;;;;5004936;28;20415;-63
2024/02/07 12:16:13;;;;;;;0.90;0.90;;;;;;;;;;5004193;28;20103;-61
2024/02/07 12:18:43;;;;;;;0.90;0.90;;;;;;;;;;5003477;28;20069;-65
2024/02/07 12:21:10;;;;;;;0.90;0.90;;;;;;;;;;5004458;28;20588;-61
2024/02/07 12:23:37;;;;;;;0.90;0.90;;;;;;;;;;5007022;28;20424;-61
2024/02/07 12:26:04;;;;;;;0.90;0.90;;;;;;;;;;5002279;28;20104;-64
2024/02/07 12:28:31;;;;;;;0.90;0.90;;;;;;;;;;5003840;28;20100;-64
2024/02/07 12:30:58;;;;;;;0.90;0.90;;;;;;;;;;5001259;28;20050;-62
2024/02/07 12:33:25;;;;;;;1.00;1.00;;;;;;;;;;5001643;28;20206;-62
2024/02/07 12:35:56;;;;;;;0.90;0.90;;;;;;;;;;5003239;28;20437;-62
2024/02/07 12:38:22;;;;;;;1.00;1.00;;;;;;;;;;4992760;28;20475;-63
2024/02/07 12:40:50;;;;;;;0.93;0.93;;;;;;;;;;5003445;28;20512;-64
2024/02/07 12:43:17;;;;;;;0.93;0.93;;;;;;;;;;5002978;28;20468;-61
2024/02/07 12:45:57;;;;;;;1.00;1.00;;;;;;;;;;5012248;28;20054;-64
2024/02/07 12:48:24;;;;;;;1.00;1.00;;;;;;;;;;5006952;28;20084;-58
2024/02/07 12:50:53;;;;;;;0.80;0.80;;;;;;;;;;5003267;28;20045;-64
2024/02/07 12:53:19;;;;;;;0.90;0.90;;;;;;;;;;5017055;28;20601;-63
2024/02/07 12:55:48;;;;;;;0.90;0.90;;;;;;;;;;5010792;28;20488;-60
2024/02/07 12:58:15;;;;;;;0.90;0.90;;;;;;;;;;5001699;28;20049;-61
2024/02/07 13:00:42;;;;;;;0.80;0.80;;;;;;;;;;5001723;28;20057;-63
2024/02/07 13:03:09;;;;;;;0.90;0.90;;;;;;;;;;5003694;28;20132;-61
2024/02/07 13:05:36;;;;;;;1.00;1.00;;;;;;;;;;5002384;28;20145;-64
2024/02/07 13:08:03;;;;;;;0.80;0.80;;;;;;;;;;5003881;28;20128;-63
2024/02/07 13:10:31;;;;;;;0.90;0.90;;;;;;;;;;5004170;28;20100;-64
2024/02/07 13:12:58;;;;;;;0.80;0.80;;;;;;;;;;5002806;28;20133;-61
2024/02/07 13:15:24;;;;;;;0.90;0.90;;;;;;;;;;5002910;28;20072;-61
2024/02/07 13:17:51;;;;;;;0.90;0.90;;;;;;;;;;5003686;28;20586;-61
2024/02/07 13:20:19;;;;;;;0.80;0.80;;;;;;;;;;5017704;28;20427;-61
2024/02/07 13:22:49;;;;;;;0.90;0.90;;;;;;;;;;4999469;28;20634;-64
2024/02/07 13:25:16;;;;;;;1.00;1.00;;;;;;;;;;5002294;28;20049;-62
2024/02/07 13:27:43;;;;;;;0.90;0.90;;;;;;;;;;4999788;28;20061;-64
2024/02/07 13:30:11;;;;;;;0.80;0.80;;;;;;;;;;5001135;28;20050;-66
2024/02/07 13:32:38;;;;;;;0.90;0.90;;;;;;;;;;5006138;28;20104;-65
2024/02/07 13:35:05;;;;;;;0.90;0.90;;;;;;;;;;5001208;28;20240;-66
2024/02/07 13:37:31;;;;;;;0.93;0.93;;;;;;;;;;5003476;28;20046;-66
2024/02/07 13:39:58;;;;;;;0.80;0.80;;;;;;;;;;4998301;28;20572;-61
2024/02/07 13:42:24;;;;;;;0.98;0.98;;;;;;;;;;4983779;28;20077;-60
2024/02/07 13:44:51;;;;;;;0.90;0.90;;;;;;;;;;4999662;28;20046;-65
2024/02/07 13:47:18;;;;;;;0.82;0.82;;;;;;;;;;5002947;28;20060;-65
2024/02/07 13:49:44;;;;;;;1.00;1.00;;;;;;;;;;5004270;28;20071;-61
2024/02/07 13:52:11;;;;;;;0.90;0.90;;;;;;;;;;5004073;28;20060;-61
2024/02/07 13:54:38;;;;;;;0.90;0.90;;;;;;;;;;5003972;28;20828;-60
2024/02/07 13:57:04;;;;;;;0.90;0.90;;;;;;;;;;5004646;28;20053;-63
2024/02/07 13:59:31;;;;;;;0.80;0.80;;;;;;;;;;5010854;28;20501;-64
2024/02/07 14:02:01;;;;;;;0.80;0.80;;;;;;;;;;5007526;28;20054;-60
2024/02/07 14:04:28;;;;;;;0.80;0.80;;;;;;;;;;5004154;28;20578;-58
2024/02/07 14:06:55;;;;;;;0.90;0.90;;;;;;;;;;5001792;28;20054;-60
2024/02/07 14:09:21;;;;;;;0.90;0.90;;;;;;;;;;5001234;28;20061;-64
2024/02/07 14:11:51;;;;;;;0.90;0.90;;;;;;;;;;5005297;28;20057;-62
2024/02/07 14:14:20;;;;;;;0.90;0.90;;;;;;;;;;5007856;28;20127;-61
2024/02/07 14:16:46;;;;;;;0.90;0.90;;;;;;;;;;5007466;28;20046;-62
2024/02/07 14:19:13;;;;;;;0.90;0.90;;;;;;;;;;5009877;28;20575;-61
2024/02/07 14:21:40;;;;;;;0.90;0.90;;;;;;;;;;5008535;28;20156;-66
2024/02/07 14:24:08;;;;;;;0.80;0.80;;;;;;;;;;5007233;28;20052;-67
2024/02/07 14:26:35;;;;;;;0.80;0.80;;;;;;;;;;5005144;28;20065;-65
2024/02/07 14:29:02;;;;;;;0.90;0.90;;;;;;;;;;5007094;28;20054;-64
2024/02/07 14:31:28;;;;;;;0.90;0.90;;;;;;;;;;5005286;28;20111;-64
2024/02/07 14:33:55;;;;;;;0.80;0.80;;;;;;;;;;5021127;28;20058;-65
2024/02/07 14:36:22;;;;;;;0.80;0.80;;;;;;;;;;5005710;28;20057;-62
2024/02/07 14:38:48;;;;;;;0.90;0.90;;;;;;;;;;5006778;28;20076;-63
2024/02/07 14:41:16;;;;;;;0.80;0.80;;;;;;;;;;5006358;28;20064;-64
2024/02/07 14:43:42;;;;;;;0.80;0.80;;;;;;;;;;5005105;28;20093;-62
2024/02/07 14:46:09;;;;;;;0.70;0.70;;;;;;;;;;5005242;28;20061;-66
2024/02/07 14:48:43;;;;;;;0.80;0.80;;;;;;;;;;5008101;28;20046;-63
2024/02/07 14:51:10;;;;;;;0.70;0.70;;;;;;;;;;5005186;28;20164;-66
2024/02/07 14:53:37;;;;;;;0.80;0.80;;;;;;;;;;5005545;28;20500;-62
2024/02/07 14:56:05;;;;;;;0.80;0.80;;;;;;;;;;5006467;28;20061;-63
2024/02/07 14:58:31;;;;;;;0.90;0.90;;;;;;;;;;5007573;28;20138;-63
2024/02/07 15:00:59;;;;;;;0.80;0.80;;;;;;;;;;5004832;28;20499;-60
2024/02/07 15:03:29;;;;;;;0.70;0.70;;;;;;;;;;5006931;28;20056;-60
2024/02/07 15:05:56;;;;;;;0.70;0.70;;;;;;;;;;4998865;28;20146;-61
2024/02/07 15:08:25;;;;;;;0.80;0.80;;;;;;;;;;5017938;28;20076;-61
2024/02/07 15:10:55;;;;;;;0.70;0.70;;;;;;;;;;5006130;28;20136;-60
2024/02/07 15:13:24;;;;;;;0.80;0.80;;;;;;;;;;5006514;28;20069;-62
2024/02/07 15:15:51;;;;;;;0.70;0.70;;;;;;;;;;5006404;28;20054;-60
2024/02/07 15:18:20;;;;;;;0.77;0.77;;;;;;;;;;5006349;28;20061;-60
2024/02/07 15:20:49;;;;;;;0.80;0.80;;;;;;;;;;5004006;28;20054;-63
2024/02/07 15:23:16;;;;;;;0.70;0.70;;;;;;;;;;5005184;28;20496;-60
2024/02/07 15:25:49;;;;;;;0.73;0.73;;;;;;;;;;5005188;28;20120;-60
2024/02/07 15:28:15;;;;;;;0.70;0.70;;;;;;;;;;5020348;28;20155;-61
2024/02/07 15:30:44;;;;;;;0.70;0.70;;;;;;;;;;5005194;28;20129;-59
2024/02/07 15:33:10;;;;;;;0.70;0.70;;;;;;;;;;5004926;28;20050;-60
2024/02/07 15:35:43;;;;;;;0.70;0.70;;;;;;;;;;5004310;28;20065;-60
2024/02/07 15:38:12;;;;;;;0.70;0.70;;;;;;;;;;5004617;28;20630;-65
2024/02/07 15:40:42;;;;;;;0.68;0.68;;;;;;;;;;5005666;28;20529;-59
2024/02/07 15:43:11;;;;;;;0.70;0.70;;;;;;;;;;5006254;28;20351;-59
2024/02/07 15:45:39;;;;;;;0.60;0.60;;;;;;;;;;5004509;28;20085;-62
2024/02/07 15:48:08;;;;;;;0.60;0.60;;;;;;;;;;5005876;28;20504;-59